Hlavní strana
METAR-TAF:

METAR-TAF

Letiště :

Vladivostok, Rusko

zeměpisná šířka: 43-07N, zeměpisná délka: 131-56E, výška: 184 m

Aktuální stav počasí

Zpráva byla vytvořena před 40 minutami, v 22:00 UTC
Bezvětří
Teplota -20°C
Vlhkost vzduchu 49%
Tlak 1026 hPa
Viditelnost 10 km a více

METAR: UHWW 202200Z 00000MPS 9999 NSC M20/M28 Q1026 R25L/0///70 NOSIG RMK QFE768

Čas: 08:40 (22:40 UTC)

Předpověď počasí

Zpráva byla vytvořena před 2 hodinami a 45 minutami, v 19:55 UTC
Předpověď platná od 20 v 21 UTC do 21 v 21 UTC
Severní vítr 12 kt
Viditelnost 10 km a více
Dočasný
od 20 v 21 UTC do 21 v 10 UTC
Severní vítr 14 kt s nárazy do 23 kt
Polojasno ve výšce 3000 ft, Cumulonimbus.
Změna
od 21 v 10 UTC do 21 v 12 UTC
Severoseverozápadní vítr 6 kt

TAF: UHWW 201955Z 2021/2121 35006MPS 9999 NSC TEMPO 2021/2110 35007G12MPS SCT030CB BECMG 2110/2112 33003MPS

Stav a předpovědi počasí z více než 4 000 letišť (zprávy METAR a TAF).

Červené a žluté tečky na mapě představují dostupné meteorologické stanice.

Když kurzor umístíte na tečku, zobrazí se název stanice.

Pak kliknutím zobrazíte stav a předpověď počasí.

Chcete-li změnit mapu, kliknutím na zelené tlačítko se znaménkem +mapu přiblížíte, kliknutím na zelené tlačítko se znaménkem – mapu oddálíte a kliknutím na zelené šipky přejdete na sousední mapy.


METAR-TAF: